Time;durP1;ratioP1;P1;durP2;ratioP2;P2;SDS_P1;SDS_P2;PMS_P1;PMS_P2;Temp;Humidity;BMP_temperature;BMP_pressure;BME280_temperature;BME280_humidity;BME280_pressure;Samples;Min_cycle;Max_cycle;Signal;HPM_P1;HPM_P2
2021/12/18 00:01:08;;;;;;;21.48;8.23;;;2.70;93.20;;;;;;5027270;28;20031;-80
2021/12/18 00:03:34;;;;;;;19.33;9.38;;;2.70;93.20;;;;;;5043593;28;20529;-80
2021/12/18 00:06:00;;;;;;;37.72;8.90;;;2.70;93.20;;;;;;5048090;28;20040;-80
2021/12/18 00:08:25;;;;;;;17.23;7.82;;;2.70;93.20;;;;;;5038803;28;20033;-80
2021/12/18 00:10:52;;;;;;;32.50;9.02;;;2.70;93.20;;;;;;5040559;28;20060;-80
2021/12/18 00:13:18;;;;;;;31.30;9.45;;;2.80;93.20;;;;;;5037924;28;20032;-81
2021/12/18 00:15:43;;;;;;;27.52;8.90;;;2.80;93.20;;;;;;5041934;28;20037;-80
2021/12/18 00:18:09;;;;;;;33.80;9.35;;;2.80;93.20;;;;;;5043813;28;20052;-80
2021/12/18 00:20:37;;;;;;;18.13;8.25;;;2.80;93.20;;;;;;5038755;28;20103;-80
2021/12/18 00:23:02;;;;;;;25.08;10.77;;;2.80;93.20;;;;;;5055800;28;20494;-81
2021/12/18 00:25:28;;;;;;;31.08;9.27;;;2.80;93.20;;;;;;5042216;28;20045;-80
2021/12/18 00:27:53;;;;;;;38.58;9.82;;;2.80;93.20;;;;;;5034352;28;20418;-81
2021/12/18 00:30:19;;;;;;;16.42;7.88;;;2.80;93.20;;;;;;5039256;28;20571;-80
2021/12/18 00:32:45;;;;;;;30.48;8.93;;;2.80;93.20;;;;;;5056367;28;20062;-81
2021/12/18 00:35:10;;;;;;;26.08;9.35;;;2.80;93.20;;;;;;5073786;28;20048;-80
2021/12/18 00:37:36;;;;;;;23.13;9.32;;;2.80;93.20;;;;;;5014702;28;20059;-80
2021/12/18 00:40:06;;;;;;;34.95;8.77;;;2.80;93.20;;;;;;5060565;28;20424;-79
2021/12/18 00:45:05;;;;;;;26.05;8.45;;;2.80;93.20;;;;;;5086901;28;20127;-81
2021/12/18 00:47:30;;;;;;;17.35;7.78;;;2.80;93.20;;;;;;5044959;28;20502;-80
2021/12/18 00:49:56;;;;;;;13.85;8.10;;;2.70;93.20;;;;;;5032390;28;20036;-80
2021/12/18 00:52:23;;;;;;;13.85;7.43;;;2.70;93.20;;;;;;5034081;28;20029;-80
2021/12/18 00:54:49;;;;;;;30.95;8.60;;;2.80;93.20;;;;;;5063093;28;20050;-80
2021/12/18 00:57:14;;;;;;;19.63;8.20;;;2.70;93.20;;;;;;5065253;28;20063;-80
2021/12/18 00:59:40;;;;;;;20.98;7.88;;;2.70;93.20;;;;;;5080539;28;20032;-80
2021/12/18 01:02:05;;;;;;;17.42;8.73;;;2.70;93.20;;;;;;5061711;28;20494;-80
2021/12/18 01:04:31;;;;;;;18.45;7.63;;;2.80;93.30;;;;;;5040530;28;20073;-80
2021/12/18 01:06:56;;;;;;;17.45;8.02;;;2.70;93.20;;;;;;5060710;28;20043;-80
2021/12/18 01:09:33;;;;;;;13.70;7.50;;;2.80;93.30;;;;;;5024603;28;20096;-81
2021/12/18 01:11:59;;;;;;;14.02;7.22;;;2.80;93.30;;;;;;5055750;28;20123;-81
2021/12/18 01:14:44;;;;;;;16.17;7.30;;;2.80;93.30;;;;;;5035699;28;20111;-81
2021/12/18 01:25:05;;;;;;;13.63;7.03;;;2.80;93.30;;;;;;5061435;28;20085;-80
2021/12/18 01:27:30;;;;;;;14.27;7.88;;;2.90;93.30;;;;;;5044387;28;20453;-81
2021/12/18 01:29:56;;;;;;;12.77;6.57;;;2.90;93.30;;;;;;5047238;28;20549;-81
2021/12/18 01:32:22;;;;;;;13.15;7.38;;;2.90;93.30;;;;;;5026722;28;20033;-80
2021/12/18 01:34:48;;;;;;;11.32;6.82;;;2.90;93.30;;;;;;5016260;28;20062;-80
2021/12/18 01:37:14;;;;;;;10.73;6.65;;;2.90;93.30;;;;;;5013795;28;20032;-79
2021/12/18 01:39:39;;;;;;;12.00;6.97;;;2.90;93.30;;;;;;5005994;28;20055;-80
2021/12/18 01:53:10;;;;;;;10.18;6.15;;;3.00;93.30;;;;;;5053739;28;20108;-80
2021/12/18 01:55:36;;;;;;;8.77;5.55;;;3.00;93.30;;;;;;5035883;28;20028;-80
2021/12/18 01:58:02;;;;;;;9.95;5.80;;;3.00;93.30;;;;;;5026915;28;20036;-80
2021/12/18 02:00:40;;;;;;;8.75;5.72;;;3.00;93.30;;;;;;5067496;28;20056;-80
2021/12/18 02:03:05;;;;;;;7.65;4.82;;;3.00;93.30;;;;;;5044965;28;20510;-80
2021/12/18 02:05:31;;;;;;;7.95;5.50;;;3.00;93.30;;;;;;5044498;28;20102;-80
2021/12/18 02:07:57;;;;;;;6.47;4.50;;;3.00;93.30;;;;;;5039583;28;20554;-80
2021/12/18 02:10:26;;;;;;;6.85;4.43;;;3.00;93.20;;;;;;5007424;28;20036;-80
2021/12/18 02:20:55;;;;;;;7.97;4.93;;;2.90;93.20;;;;;;5055514;28;20512;-80
2021/12/18 02:23:21;;;;;;;5.93;4.18;;;2.90;93.20;;;;;;5044912;28;20039;-81
2021/12/18 02:25:47;;;;;;;7.00;4.47;;;2.90;93.20;;;;;;5036963;28;20074;-81
2021/12/18 02:28:17;;;;;;;5.78;4.45;;;2.90;93.20;;;;;;5062802;28;20322;-81
2021/12/18 02:30:43;;;;;;;7.17;4.63;;;3.00;93.20;;;;;;5032215;28;20028;-81
2021/12/18 02:33:08;;;;;;;6.25;4.45;;;3.00;93.20;;;;;;5039516;28;20277;-81
2021/12/18 02:35:39;;;;;;;8.50;4.47;;;3.00;93.30;;;;;;5044270;28;20040;-79
2021/12/18 02:38:11;;;;;;;6.75;4.57;;;3.00;93.20;;;;;;5036977;28;20032;-80
2021/12/18 02:40:52;;;;;;;6.55;4.43;;;3.00;93.30;;;;;;5052910;28;20039;-81
2021/12/18 02:43:17;;;;;;;6.72;4.88;;;3.00;93.20;;;;;;5045103;28;20047;-80
2021/12/18 02:45:43;;;;;;;8.18;4.88;;;3.00;93.20;;;;;;5043970;28;20041;-81
2021/12/18 02:48:08;;;;;;;6.13;4.38;;;3.00;93.20;;;;;;5052611;28;20040;-80
2021/12/18 02:50:38;;;;;;;7.65;4.82;;;3.00;93.20;;;;;;5077466;28;20044;-80
2021/12/18 02:53:05;;;;;;;7.32;4.47;;;3.00;93.20;;;;;;5047813;28;20486;-81
2021/12/18 02:55:30;;;;;;;7.35;4.75;;;3.00;93.20;;;;;;5040940;28;20410;-81
2021/12/18 02:57:56;;;;;;;8.60;4.78;;;3.00;93.20;;;;;;5066222;28;20040;-81
2021/12/18 03:00:23;;;;;;;6.70;4.13;;;3.10;93.30;;;;;;5052425;28;20045;-81
2021/12/18 03:02:49;;;;;;;8.85;5.57;;;3.10;93.30;;;;;;5060723;28;20036;-80
2021/12/18 03:05:22;;;;;;;7.80;4.85;;;3.10;93.20;;;;;;5023684;28;20043;-80
2021/12/18 03:07:52;;;;;;;6.68;4.60;;;3.10;93.20;;;;;;5034970;28;20116;-80
2021/12/18 03:23:57;;;;;;;10.35;5.43;;;3.10;93.20;;;;;;5006743;28;20041;-81
2021/12/18 03:26:23;;;;;;;8.73;5.10;;;3.10;93.20;;;;;;5041791;28;20043;-80
2021/12/18 03:28:49;;;;;;;8.57;4.97;;;3.10;93.20;;;;;;5052145;28;20041;-81
2021/12/18 03:31:14;;;;;;;5.78;4.38;;;3.10;93.20;;;;;;5053408;28;20036;-80
2021/12/18 03:33:40;;;;;;;6.32;4.07;;;3.10;93.20;;;;;;5051191;28;20048;-80
2021/12/18 03:36:07;;;;;;;6.25;3.90;;;3.10;93.20;;;;;;5054113;28;20028;-80
2021/12/18 03:38:32;;;;;;;6.05;4.55;;;3.20;93.20;;;;;;5043245;28;20041;-81
2021/12/18 03:40:58;;;;;;;5.45;3.78;;;3.20;93.20;;;;;;5065102;28;20032;-82
2021/12/18 03:43:23;;;;;;;5.05;4.00;;;3.20;93.20;;;;;;5035903;28;20046;-80
2021/12/18 03:45:49;;;;;;;4.85;3.50;;;3.20;93.20;;;;;;5054311;28;20044;-80
2021/12/18 03:48:15;;;;;;;4.10;3.08;;;3.10;93.20;;;;;;5032848;28;20036;-81
2021/12/18 03:50:40;;;;;;;6.25;3.85;;;3.20;93.20;;;;;;5073182;28;20119;-79
2021/12/18 03:53:06;;;;;;;5.18;4.13;;;3.20;93.20;;;;;;5060330;28;20037;-79
2021/12/18 03:55:31;;;;;;;6.68;4.18;;;3.20;93.20;;;;;;5093432;28;20040;-80
2021/12/18 03:57:57;;;;;;;5.28;3.65;;;3.20;93.20;;;;;;5061758;28;20032;-81
2021/12/18 04:00:22;;;;;;;6.13;4.13;;;3.20;93.20;;;;;;5092227;28;20029;-81
2021/12/18 04:02:48;;;;;;;6.90;4.53;;;3.20;93.20;;;;;;5062533;28;20032;-80
2021/12/18 04:05:13;;;;;;;5.88;4.38;;;3.20;93.20;;;;;;5058489;28;20043;-81
2021/12/18 04:07:44;;;;;;;5.65;4.50;;;3.20;93.20;;;;;;5019382;28;20079;-81
2021/12/18 04:10:12;;;;;;;5.78;3.70;;;3.20;93.20;;;;;;5046390;28;20440;-80
2021/12/18 04:12:37;;;;;;;5.93;3.80;;;3.20;93.20;;;;;;5076606;28;20033;-81
2021/12/18 04:15:03;;;;;;;6.20;4.07;;;3.20;93.20;;;;;;5032512;28;20029;-80
2021/12/18 04:17:29;;;;;;;5.13;3.88;;;3.20;93.20;;;;;;5079333;28;20093;-81
2021/12/18 04:19:54;;;;;;;6.10;3.85;;;3.20;93.20;;;;;;5068961;28;20469;-81
2021/12/18 04:22:20;;;;;;;4.78;3.90;;;3.20;93.20;;;;;;5052199;28;20032;-81
2021/12/18 04:24:45;;;;;;;5.57;4.13;;;3.20;93.20;;;;;;5083993;28;20032;-82
2021/12/18 04:27:11;;;;;;;5.90;3.97;;;3.30;93.20;;;;;;5017001;28;20050;-80
2021/12/18 04:29:36;;;;;;;5.53;3.85;;;3.30;93.20;;;;;;5041672;28;20879;-81
2021/12/18 04:32:02;;;;;;;7.00;4.15;;;3.30;93.20;;;;;;5045944;28;20502;-81
2021/12/18 04:34:28;;;;;;;6.22;4.07;;;3.30;93.20;;;;;;5065092;28;20041;-80
2021/12/18 04:36:53;;;;;;;7.97;3.70;;;3.30;93.20;;;;;;5041408;28;20434;-80
2021/12/18 04:39:19;;;;;;;4.20;3.35;;;3.30;93.20;;;;;;5053356;28;20040;-82
2021/12/18 04:41:50;;;;;;;6.40;3.78;;;3.30;93.20;;;;;;5028458;28;20445;-80
2021/12/18 04:44:16;;;;;;;4.43;3.33;;;3.30;93.20;;;;;;5047939;28;20037;-80
2021/12/18 04:46:41;;;;;;;5.32;3.45;;;3.30;93.20;;;;;;5060449;28;20095;-79
2021/12/18 04:49:07;;;;;;;6.30;3.72;;;3.30;93.50;;;;;;5049089;28;20170;-80
2021/12/18 04:51:33;;;;;;;5.85;3.80;;;3.30;93.20;;;;;;5056475;28;20395;-80
2021/12/18 04:53:58;;;;;;;5.82;4.03;;;3.30;93.20;;;;;;5051733;28;20040;-80
2021/12/18 04:56:24;;;;;;;5.35;3.65;;;3.30;93.20;;;;;;5081672;28;20059;-80
2021/12/18 04:58:49;;;;;;;6.00;3.80;;;3.30;93.20;;;;;;5046961;28;20425;-81
2021/12/18 05:01:16;;;;;;;6.40;3.40;;;3.30;93.20;;;;;;5051498;28;20123;-81
2021/12/18 05:03:42;;;;;;;4.70;3.33;;;3.30;93.20;;;;;;5049925;28;20028;-81
2021/12/18 05:06:08;;;;;;;5.03;3.53;;;3.30;93.20;;;;;;5051770;28;20625;-82
2021/12/18 05:08:33;;;;;;;4.22;3.20;;;3.30;93.20;;;;;;5056380;28;20142;-81
2021/12/18 05:10:59;;;;;;;4.82;3.85;;;3.30;93.20;;;;;;5031368;28;20056;-81
2021/12/18 05:13:24;;;;;;;6.03;3.90;;;3.30;93.10;;;;;;5043331;28;20044;-81
2021/12/18 05:15:50;;;;;;;4.93;3.60;;;3.30;93.20;;;;;;5057933;28;20049;-82
2021/12/18 05:18:15;;;;;;;5.63;3.53;;;3.30;93.10;;;;;;5059987;28;20039;-81
2021/12/18 05:20:41;;;;;;;5.40;3.95;;;3.30;93.10;;;;;;5044799;28;20029;-81
2021/12/18 05:23:06;;;;;;;5.30;3.63;;;3.30;93.10;;;;;;5029402;28;20047;-81
2021/12/18 05:25:32;;;;;;;5.35;3.65;;;3.40;93.20;;;;;;5074678;28;20052;-82
2021/12/18 05:27:58;;;;;;;3.95;3.28;;;3.30;93.10;;;;;;5019929;28;20108;-81
2021/12/18 05:30:23;;;;;;;4.88;3.38;;;3.30;93.10;;;;;;5028932;28;20051;-82
2021/12/18 05:32:49;;;;;;;5.05;3.20;;;3.30;93.10;;;;;;5072173;28;20107;-81
2021/12/18 05:35:15;;;;;;;4.03;3.22;;;3.30;93.10;;;;;;5045949;28;20169;-81
2021/12/18 05:38:04;;;;;;;6.00;4.03;;;3.30;93.10;;;;;;5032669;28;20033;-81
2021/12/18 05:40:29;;;;;;;6.65;4.20;;;3.40;93.20;;;;;;5046139;28;20102;-83
2021/12/18 05:42:55;;;;;;;6.35;4.03;;;3.40;93.20;;;;;;5043043;28;20037;-82
2021/12/18 05:45:20;;;;;;;5.93;4.05;;;3.40;93.10;;;;;;5044314;28;20539;-83
2021/12/18 05:47:46;;;;;;;8.23;4.85;;;3.40;93.10;;;;;;5034016;28;20064;-83
2021/12/18 05:50:13;;;;;;;21.48;9.40;;;3.40;93.20;;;;;;5027368;28;20043;-83
2021/12/18 05:52:39;;;;;;;13.68;6.82;;;3.40;93.20;;;;;;5043295;28;20367;-82
2021/12/18 05:55:05;;;;;;;9.38;5.53;;;3.40;93.20;;;;;;5080645;28;20041;-82
2021/12/18 05:57:30;;;;;;;8.48;5.18;;;3.40;93.20;;;;;;5025756;28;20541;-82
2021/12/18 05:59:56;;;;;;;10.70;5.15;;;3.40;93.20;;;;;;5067982;28;20035;-83
2021/12/18 06:02:21;;;;;;;11.70;5.68;;;3.50;93.20;;;;;;5010995;28;20048;-83
2021/12/18 06:04:47;;;;;;;6.72;4.05;;;3.40;93.20;;;;;;5033471;28;20037;-84
2021/12/18 06:09:57;;;;;;;6.85;4.72;;;3.40;93.20;;;;;;5055957;28;20106;-80
2021/12/18 06:12:23;;;;;;;6.35;3.88;;;3.40;93.10;;;;;;5042833;28;20127;-80
2021/12/18 06:14:49;;;;;;;6.93;4.20;;;3.40;93.10;;;;;;5016903;28;20532;-81
2021/12/18 06:17:14;;;;;;;6.47;3.95;;;3.40;93.20;;;;;;5041679;28;20132;-80
2021/12/18 06:19:40;;;;;;;5.78;3.90;;;3.40;92.90;;;;;;5043479;28;20561;-81
2021/12/18 06:22:05;;;;;;;6.03;3.83;;;3.40;93.20;;;;;;5037178;28;20037;-81
2021/12/18 06:24:31;;;;;;;6.85;3.83;;;3.50;93.20;;;;;;5049049;28;20088;-80
2021/12/18 06:26:56;;;;;;;6.53;3.83;;;3.50;93.20;;;;;;5062127;28;20198;-81
2021/12/18 06:29:22;;;;;;;6.18;4.00;;;3.50;93.20;;;;;;5029789;28;20094;-81
2021/12/18 06:31:48;;;;;;;6.72;4.47;;;3.50;93.20;;;;;;5043594;28;20039;-80
2021/12/18 06:34:14;;;;;;;5.65;3.38;;;3.50;93.20;;;;;;5030439;28;20074;-81
2021/12/18 06:36:40;;;;;;;4.40;3.28;;;3.50;93.20;;;;;;5032349;28;20072;-80
2021/12/18 06:39:05;;;;;;;6.47;3.22;;;3.50;93.20;;;;;;5024086;28;20065;-80
2021/12/18 06:41:31;;;;;;;6.03;3.63;;;3.50;93.20;;;;;;5040204;28;20029;-81
2021/12/18 06:43:56;;;;;;;5.75;3.53;;;3.50;93.20;;;;;;5071990;28;20036;-81
2021/12/18 06:46:22;;;;;;;5.50;3.85;;;3.50;93.20;;;;;;5049786;28;20044;-82
2021/12/18 06:48:47;;;;;;;6.13;3.85;;;3.50;93.20;;;;;;5061278;28;20052;-81
2021/12/18 06:51:18;;;;;;;6.40;4.30;;;3.50;93.20;;;;;;5037018;28;20040;-81
2021/12/18 06:53:43;;;;;;;5.45;3.75;;;3.50;93.20;;;;;;5019548;28;20508;-81
2021/12/18 06:56:09;;;;;;;7.85;4.07;;;3.50;93.10;;;;;;5063304;28;20038;-81
2021/12/18 06:58:34;;;;;;;5.75;3.70;;;3.50;93.20;;;;;;5057356;28;20045;-81
2021/12/18 07:01:00;;;;;;;4.78;3.67;;;3.50;93.10;;;;;;5035424;28;20035;-82
2021/12/18 07:03:26;;;;;;;5.60;3.85;;;3.50;93.10;;;;;;5055298;28;20247;-80
2021/12/18 07:05:51;;;;;;;6.00;4.10;;;3.50;93.10;;;;;;5053454;28;20127;-81
2021/12/18 07:08:17;;;;;;;5.32;3.95;;;3.50;93.10;;;;;;5052241;28;20079;-82
2021/12/18 07:10:43;;;;;;;4.45;3.42;;;3.50;93.10;;;;;;5057848;28;20033;-80
2021/12/18 07:13:08;;;;;;;6.63;4.13;;;3.50;93.20;;;;;;5024571;28;20028;-81
2021/12/18 07:15:34;;;;;;;6.07;4.15;;;3.50;93.10;;;;;;5062384;28;20044;-81
2021/12/18 07:18:00;;;;;;;8.02;5.40;;;3.50;93.10;;;;;;5025079;28;20494;-81
2021/12/18 07:20:27;;;;;;;6.22;4.38;;;3.50;93.10;;;;;;5041777;28;20438;-81
2021/12/18 07:22:53;;;;;;;6.20;4.13;;;3.50;93.20;;;;;;5055484;28;20029;-80
2021/12/18 07:25:19;;;;;;;5.55;3.67;;;3.60;93.20;;;;;;5058614;28;20036;-80
2021/12/18 07:27:44;;;;;;;4.68;3.42;;;3.50;93.10;;;;;;5057703;28;20040;-81
2021/12/18 07:30:11;;;;;;;5.63;3.90;;;3.50;93.10;;;;;;5061444;28;20075;-83
2021/12/18 07:32:37;;;;;;;12.18;9.70;;;3.50;93.10;;;;;;5025848;28;20047;-81
2021/12/18 07:35:04;;;;;;;7.95;5.30;;;3.60;93.20;;;;;;5075037;28;20696;-83
2021/12/18 07:37:29;;;;;;;7.78;3.95;;;3.60;93.20;;;;;;5058551;28;20052;-81
2021/12/18 07:39:55;;;;;;;6.80;3.60;;;3.50;93.20;;;;;;5025780;28;20037;-81
2021/12/18 07:42:20;;;;;;;6.78;4.03;;;3.50;93.10;;;;;;5004379;28;20080;-81
2021/12/18 07:44:46;;;;;;;5.90;4.13;;;3.60;93.20;;;;;;5044357;28;20028;-82
2021/12/18 07:47:11;;;;;;;4.60;3.47;;;3.60;93.20;;;;;;5040546;28;20120;-82
2021/12/18 07:49:37;;;;;;;5.00;3.70;;;3.60;93.20;;;;;;5048503;28;20025;-81
2021/12/18 07:52:04;;;;;;;5.40;3.95;;;3.60;93.20;;;;;;5013155;28;20036;-83
2021/12/18 07:54:30;;;;;;;6.63;3.92;;;3.60;93.20;;;;;;5042095;28;20569;-81
2021/12/18 07:56:55;;;;;;;4.90;3.70;;;3.60;93.20;;;;;;5025754;28;20283;-82
2021/12/18 07:59:21;;;;;;;4.50;3.45;;;3.60;93.20;;;;;;5032468;28;20082;-81
2021/12/18 08:01:46;;;;;;;4.93;3.60;;;3.60;93.20;;;;;;5040739;28;20032;-81
2021/12/18 08:04:12;;;;;;;5.25;3.58;;;3.60;93.20;;;;;;5066888;28;20143;-81
2021/12/18 08:06:38;;;;;;;6.93;4.85;;;3.60;93.20;;;;;;5022267;28;20168;-81
2021/12/18 08:09:03;;;;;;;5.60;3.72;;;3.60;93.20;;;;;;5039235;28;20367;-83
2021/12/18 08:11:29;;;;;;;5.68;3.90;;;3.60;93.20;;;;;;5035337;28;20052;-83
2021/12/18 08:13:54;;;;;;;5.57;4.50;;;3.60;93.20;;;;;;5076523;28;20032;-80
2021/12/18 08:16:20;;;;;;;5.63;4.00;;;3.60;93.20;;;;;;5035809;28;20093;-81
2021/12/18 08:18:45;;;;;;;6.47;4.93;;;3.60;93.20;;;;;;5039071;28;20037;-81
2021/12/18 08:21:11;;;;;;;6.03;4.13;;;3.60;93.20;;;;;;5015576;28;20032;-81
2021/12/18 08:23:36;;;;;;;5.25;4.22;;;3.60;93.20;;;;;;5051010;28;20032;-81
2021/12/18 08:26:02;;;;;;;6.85;4.68;;;3.70;93.20;;;;;;5057954;28;20465;-83
2021/12/18 08:28:28;;;;;;;6.78;4.28;;;3.70;93.20;;;;;;5024301;28;20429;-84
2021/12/18 08:30:53;;;;;;;5.07;4.07;;;3.70;93.20;;;;;;5035222;28;20559;-83
2021/12/18 08:33:19;;;;;;;8.57;5.75;;;3.70;93.20;;;;;;5058309;28;20051;-84
2021/12/18 08:35:44;;;;;;;9.25;5.93;;;3.70;93.20;;;;;;5047896;28;20040;-84
2021/12/18 08:38:10;;;;;;;8.27;5.43;;;3.70;93.20;;;;;;5043273;28;20070;-84
2021/12/18 08:40:36;;;;;;;8.25;5.15;;;3.70;93.20;;;;;;5013419;28;20200;-84
2021/12/18 08:43:01;;;;;;;5.95;4.65;;;3.70;93.20;;;;;;5055188;28;20061;-83
2021/12/18 08:45:27;;;;;;;6.82;4.40;;;3.70;93.20;;;;;;5077772;28;20082;-83
2021/12/18 08:47:52;;;;;;;8.18;4.78;;;3.70;93.20;;;;;;5065758;28;20036;-83
2021/12/18 08:50:18;;;;;;;7.38;5.22;;;3.70;93.20;;;;;;5040470;28;20125;-83
2021/12/18 08:52:45;;;;;;;7.50;5.43;;;3.70;93.20;;;;;;5044945;28;20558;-83
2021/12/18 08:55:10;;;;;;;6.60;4.68;;;3.70;93.20;;;;;;5065849;28;20409;-83
2021/12/18 08:57:36;;;;;;;8.13;5.35;;;3.80;93.20;;;;;;5032713;28;20060;-83
2021/12/18 09:00:03;;;;;;;10.05;5.10;;;3.80;93.20;;;;;;5018410;28;20038;-83
2021/12/18 09:02:29;;;;;;;8.65;5.05;;;3.80;93.20;;;;;;5061855;28;20505;-83
2021/12/18 09:04:55;;;;;;;7.35;5.35;;;3.80;93.20;;;;;;5043012;28;20051;-84
2021/12/18 09:07:20;;;;;;;12.18;6.60;;;3.80;93.20;;;;;;5046112;28;20036;-84
2021/12/18 09:09:46;;;;;;;12.93;7.47;;;3.80;93.20;;;;;;5047937;28;20043;-84
2021/12/18 09:12:11;;;;;;;10.82;7.07;;;3.80;93.20;;;;;;5080079;28;20064;-83
2021/12/18 09:14:38;;;;;;;11.70;7.00;;;3.80;93.20;;;;;;5051942;28;20032;-84
2021/12/18 09:17:03;;;;;;;9.30;6.03;;;3.90;93.20;;;;;;5072719;28;20540;-82
2021/12/18 09:19:29;;;;;;;9.77;5.85;;;3.90;93.20;;;;;;5041364;28;20044;-81
2021/12/18 09:21:55;;;;;;;11.30;6.97;;;3.90;93.20;;;;;;5040240;28;20111;-81
2021/12/18 09:24:21;;;;;;;8.02;5.75;;;3.90;93.20;;;;;;5041797;28;20037;-80
2021/12/18 09:26:47;;;;;;;11.23;6.68;;;3.90;93.20;;;;;;5029713;28;20044;-82
2021/12/18 09:29:13;;;;;;;10.63;6.47;;;3.90;93.20;;;;;;5048995;28;20121;-81
2021/12/18 09:31:38;;;;;;;11.55;6.57;;;3.90;93.20;;;;;;5065419;28;20060;-82
2021/12/18 09:34:04;;;;;;;9.95;6.68;;;3.90;93.20;;;;;;5033189;28;20052;-80
2021/12/18 09:36:29;;;;;;;7.53;5.50;;;3.90;93.20;;;;;;5047317;28;20032;-81
2021/12/18 09:38:55;;;;;;;11.32;6.35;;;3.90;93.20;;;;;;5022372;28;20040;-82
2021/12/18 09:41:21;;;;;;;9.15;6.18;;;4.00;93.20;;;;;;5031033;28;20119;-82
2021/12/18 09:43:47;;;;;;;8.43;5.72;;;4.00;93.20;;;;;;5040617;28;20045;-81
2021/12/18 09:46:14;;;;;;;9.10;5.90;;;4.00;93.20;;;;;;5062075;28;20041;-81
2021/12/18 09:48:40;;;;;;;9.55;6.35;;;4.00;93.20;;;;;;5044931;28;20044;-82
2021/12/18 09:51:11;;;;;;;10.85;7.75;;;4.00;93.20;;;;;;5039559;28;20036;-80
2021/12/18 09:53:39;;;;;;;9.00;6.63;;;4.10;93.20;;;;;;5048209;28;20044;-83
2021/12/18 09:56:05;;;;;;;10.20;5.82;;;4.10;93.20;;;;;;5048885;28;20406;-82
2021/12/18 09:58:31;;;;;;;9.80;6.20;;;4.10;93.20;;;;;;5028387;28;20049;-81
2021/12/18 10:00:57;;;;;;;6.85;5.15;;;4.10;93.20;;;;;;5036938;28;20035;-82
2021/12/18 10:03:40;;;;;;;8.48;5.85;;;4.10;93.20;;;;;;5049222;28;20520;-81
2021/12/18 10:06:28;;;;;;;10.65;6.72;;;4.10;93.20;;;;;;5030159;28;20028;-84
2021/12/18 10:08:54;;;;;;;12.07;7.78;;;4.10;93.20;;;;;;5043216;28;20065;-84
2021/12/18 10:11:20;;;;;;;10.50;6.78;;;4.20;93.20;;;;;;5041984;28;20493;-83
2021/12/18 10:13:55;;;;;;;11.50;7.82;;;4.20;93.20;;;;;;5055419;28;20036;-81
2021/12/18 10:16:21;;;;;;;10.98;7.53;;;4.20;93.20;;;;;;5057466;28;20141;-81
2021/12/18 10:18:46;;;;;;;15.05;8.55;;;4.20;93.20;;;;;;5065488;28;20072;-81
2021/12/18 10:21:17;;;;;;;15.52;8.15;;;4.20;93.20;;;;;;5046372;28;20042;-81
2021/12/18 10:23:43;;;;;;;13.45;7.75;;;4.20;93.20;;;;;;5040345;28;20591;-81
2021/12/18 10:26:34;;;;;;;15.93;8.85;;;4.30;93.20;;;;;;5016254;28;20032;-81
2021/12/18 10:29:00;;;;;;;14.40;8.10;;;4.30;93.20;;;;;;5059141;28;20522;-81
2021/12/18 10:31:42;;;;;;;9.98;7.07;;;4.30;93.20;;;;;;5056231;28;20077;-81
2021/12/18 10:34:17;;;;;;;12.60;7.82;;;4.30;93.10;;;;;;5075970;28;20045;-81
2021/12/18 10:37:21;;;;;;;12.65;7.43;;;4.30;93.10;;;;;;5042061;28;20577;-81
2021/12/18 10:39:49;;;;;;;10.07;7.18;;;4.30;93.10;;;;;;5044664;28;20507;-81
2021/12/18 10:42:29;;;;;;;11.93;7.35;;;4.30;93.10;;;;;;5043254;28;20048;-81
2021/12/18 10:45:01;;;;;;;11.20;7.07;;;4.30;93.10;;;;;;5035108;28;20040;-81
2021/12/18 10:47:40;;;;;;;12.65;7.63;;;4.30;93.10;;;;;;5052529;28;20054;-81
2021/12/18 10:50:15;;;;;;;12.73;7.82;;;4.30;93.10;;;;;;5055988;28;20033;-80
2021/12/18 10:52:40;;;;;;;13.75;8.55;;;4.30;93.10;;;;;;5038681;28;20033;-81
2021/12/18 10:55:06;;;;;;;14.20;8.43;;;4.40;93.10;;;;;;5061306;28;20037;-81
2021/12/18 10:57:32;;;;;;;12.55;8.32;;;4.40;93.10;;;;;;5050179;28;20565;-81
2021/12/18 10:59:58;;;;;;;15.73;8.95;;;4.40;93.10;;;;;;5038715;28;20054;-81
2021/12/18 11:02:25;;;;;;;14.00;8.57;;;4.40;93.10;;;;;;5031127;28;20067;-81
2021/12/18 11:04:51;;;;;;;16.60;9.48;;;4.40;93.10;;;;;;5044818;28;20796;-81
2021/12/18 11:07:22;;;;;;;13.70;8.68;;;4.40;93.00;;;;;;5040392;28;20075;-81
2021/12/18 11:15:17;;;;;;;17.15;9.52;;;4.40;93.00;;;;;;5065441;28;20043;-81
2021/12/18 11:17:42;;;;;;;11.52;7.50;;;4.40;93.00;;;;;;5019114;28;22820;-81
2021/12/18 11:20:09;;;;;;;13.57;8.27;;;4.40;93.00;;;;;;4990317;28;20105;-81
2021/12/18 11:22:34;;;;;;;14.32;8.93;;;4.50;93.00;;;;;;4993091;28;20071;-81
2021/12/18 11:25:01;;;;;;;13.63;8.45;;;4.50;93.00;;;;;;5031934;28;20490;-81
2021/12/18 11:27:28;;;;;;;16.75;8.68;;;4.50;93.00;;;;;;5051794;28;20029;-81
2021/12/18 11:29:55;;;;;;;16.17;9.65;;;4.50;93.00;;;;;;4992153;28;20394;-81
2021/12/18 11:32:29;;;;;;;12.80;8.18;;;4.50;93.00;;;;;;5028130;28;20050;-81
2021/12/18 11:34:56;;;;;;;14.98;8.15;;;4.50;93.00;;;;;;5051549;28;20104;-81
2021/12/18 11:37:22;;;;;;;14.98;8.25;;;4.50;93.00;;;;;;5057593;28;20044;-81
2021/12/18 11:39:49;;;;;;;12.23;7.57;;;4.50;93.00;;;;;;5025420;28;20052;-80
2021/12/18 11:42:14;;;;;;;13.02;7.90;;;4.50;93.00;;;;;;5024812;28;20530;-81
2021/12/18 11:44:42;;;;;;;13.25;8.55;;;4.50;93.00;;;;;;5041776;28;20098;-81
2021/12/18 11:47:23;;;;;;;13.38;8.10;;;4.50;93.00;;;;;;5024599;28;20036;-81
2021/12/18 11:49:49;;;;;;;13.90;8.95;;;4.50;92.90;;;;;;5045868;28;20128;-81
2021/12/18 11:52:14;;;;;;;14.10;7.93;;;4.50;92.90;;;;;;5032077;28;20037;-81
2021/12/18 11:54:51;;;;;;;12.65;8.35;;;4.50;92.90;;;;;;5009943;28;20038;-81
2021/12/18 11:57:48;;;;;;;14.30;6.80;;;4.50;93.00;;;;;;5038748;28;20041;-81
2021/12/18 12:00:22;;;;;;;12.02;7.13;;;4.60;93.00;;;;;;5023908;28;20041;-81
2021/12/18 12:02:52;;;;;;;21.08;10.57;;;4.60;92.90;;;;;;5051881;28;20044;-81
2021/12/18 12:05:19;;;;;;;14.68;8.73;;;4.50;92.90;;;;;;5019906;28;20036;-81
2021/12/18 12:07:45;;;;;;;12.13;7.60;;;4.50;92.90;;;;;;5037769;28;20092;-81
2021/12/18 12:12:58;;;;;;;10.48;6.75;;;4.50;92.90;;;;;;5054255;28;20901;-81
2021/12/18 12:15:26;;;;;;;10.73;6.13;;;4.60;92.90;;;;;;5035269;28;20112;-81
2021/12/18 12:17:59;;;;;;;10.00;6.25;;;4.60;92.90;;;;;;5057028;28;20383;-81
2021/12/18 12:20:39;;;;;;;8.43;5.78;;;4.60;92.90;;;;;;5043951;28;20045;-81
2021/12/18 12:23:05;;;;;;;7.95;5.13;;;4.60;92.90;;;;;;5026390;28;20056;-81
2021/12/18 12:25:33;;;;;;;10.20;6.03;;;4.60;92.90;;;;;;5042322;28;20121;-81
2021/12/18 12:28:10;;;;;;;8.88;5.32;;;4.60;92.80;;;;;;5047335;28;20085;-81
2021/12/18 12:30:47;;;;;;;8.05;5.25;;;4.60;92.80;;;;;;5047881;28;20128;-81
2021/12/18 12:33:20;;;;;;;9.95;5.22;;;4.60;92.80;;;;;;5027070;28;20041;-81
2021/12/18 12:36:25;;;;;;;10.27;6.28;;;4.60;92.90;;;;;;5025524;28;20032;-81
2021/12/18 12:39:01;;;;;;;8.65;5.25;;;4.60;92.90;;;;;;5038566;28;20459;-80
2021/12/18 12:41:32;;;;;;;10.18;5.00;;;4.60;92.80;;;;;;5019813;28;20391;-81
2021/12/18 12:44:04;;;;;;;9.35;6.00;;;4.60;92.80;;;;;;5041674;28;20033;-81
2021/12/18 12:46:30;;;;;;;8.85;5.38;;;4.60;92.80;;;;;;5027677;28;20073;-81
2021/12/18 12:49:02;;;;;;;20.75;10.85;;;4.60;92.90;;;;;;5039676;28;20036;-81
2021/12/18 12:52:07;;;;;;;11.40;6.03;;;4.60;92.80;;;;;;5041973;28;20083;-81
2021/12/18 12:54:57;;;;;;;11.18;6.82;;;4.60;92.80;;;;;;5046370;28;20041;-80
2021/12/18 12:57:23;;;;;;;11.82;7.78;;;4.60;92.80;;;;;;5048329;28;20033;-81
2021/12/18 12:59:58;;;;;;;11.85;7.57;;;4.60;92.80;;;;;;5043940;28;20120;-81
2021/12/18 13:02:26;;;;;;;8.55;5.32;;;4.60;92.80;;;;;;5041331;28;20033;-80
2021/12/18 13:05:04;;;;;;;10.77;6.50;;;4.60;92.80;;;;;;5063661;28;20041;-80
2021/12/18 13:07:30;;;;;;;9.98;6.05;;;4.60;92.80;;;;;;5059431;28;20059;-80
2021/12/18 13:09:55;;;;;;;11.18;6.68;;;4.60;92.80;;;;;;5057617;28;21099;-81
2021/12/18 13:12:21;;;;;;;8.82;5.72;;;4.60;92.80;;;;;;5058169;28;20036;-81
2021/12/18 13:14:47;;;;;;;12.45;6.38;;;4.60;93.10;;;;;;5036280;28;20130;-81
2021/12/18 13:17:23;;;;;;;9.75;5.90;;;4.70;92.80;;;;;;5060457;28;20056;-81
2021/12/18 13:19:56;;;;;;;8.57;5.47;;;4.60;92.80;;;;;;5043108;28;20506;-81
2021/12/18 13:22:25;;;;;;;8.98;5.55;;;4.70;92.80;;;;;;5052190;28;20603;-81
2021/12/18 13:25:00;;;;;;;13.48;6.93;;;4.60;92.80;;;;;;5047745;28;20055;-81
2021/12/18 13:27:26;;;;;;;13.27;7.80;;;4.70;92.80;;;;;;5030063;28;20029;-81
2021/12/18 13:30:10;;;;;;;10.07;5.47;;;4.60;92.80;;;;;;5031918;28;20090;-81
2021/12/18 13:32:35;;;;;;;10.55;6.38;;;4.70;92.70;;;;;;5047962;28;20052;-81
2021/12/18 13:35:01;;;;;;;10.23;6.38;;;4.60;92.70;;;;;;5063161;28;20148;-81
2021/12/18 13:37:26;;;;;;;9.95;6.50;;;4.60;92.70;;;;;;5042378;28;20673;-81
2021/12/18 13:39:53;;;;;;;8.80;5.68;;;4.60;92.70;;;;;;5031329;28;20729;-81
2021/12/18 13:42:22;;;;;;;10.90;6.22;;;4.60;92.70;;;;;;5019727;28;20041;-81
2021/12/18 13:45:01;;;;;;;13.13;7.60;;;4.70;92.70;;;;;;5028442;28;20044;-80
2021/12/18 13:47:47;;;;;;;10.75;6.85;;;4.60;92.70;;;;;;5031287;28;20040;-81
2021/12/18 13:50:16;;;;;;;10.80;6.47;;;4.60;92.70;;;;;;5046685;28;20033;-81